createdAt,value
2022-12-17T00:01:33.404Z,23.42
2022-12-17T00:04:00.096Z,23.74
2022-12-17T00:06:26.701Z,22.46
2022-12-17T00:08:53.157Z,23.07
2022-12-17T00:11:19.626Z,21.93
2022-12-17T00:13:46.077Z,22.13
2022-12-17T00:16:12.596Z,21.08
2022-12-17T00:18:39.101Z,20.85
2022-12-17T00:21:06.376Z,20.40
2022-12-17T00:23:33.017Z,21.84
2022-12-17T00:25:59.667Z,22.13
2022-12-17T00:28:26.168Z,21.82
2022-12-17T00:30:52.655Z,21.64
2022-12-17T00:33:19.407Z,21.68
2022-12-17T00:35:52.164Z,20.77
2022-12-17T00:38:19.420Z,20.31
2022-12-17T00:40:50.934Z,20.31
2022-12-17T00:43:18.666Z,19.42
2022-12-17T00:45:46.166Z,19.24
2022-12-17T00:48:12.613Z,18.71
2022-12-17T00:50:39.090Z,18.63
2022-12-17T00:53:05.560Z,17.93
2022-12-17T00:55:32.036Z,18.51
2022-12-17T00:57:58.541Z,18.57
2022-12-17T01:00:25.028Z,18.35
2022-12-17T01:02:51.705Z,18.20
2022-12-17T01:05:18.576Z,18.69
2022-12-17T01:07:45.177Z,18.99
2022-12-17T01:10:11.629Z,18.68
2022-12-17T01:12:38.107Z,18.76
2022-12-17T01:15:05.188Z,18.22
2022-12-17T01:17:31.744Z,18.31
2022-12-17T01:19:58.376Z,18.20
2022-12-17T01:22:24.843Z,19.12
2022-12-17T01:24:51.299Z,19.23
2022-12-17T01:27:18.392Z,18.85
2022-12-17T01:29:44.863Z,18.83
2022-12-17T01:32:11.400Z,19.61
2022-12-17T01:34:37.900Z,18.82
2022-12-17T01:37:04.443Z,18.54
2022-12-17T01:39:30.950Z,18.73
2022-12-17T01:41:57.691Z,19.34
2022-12-17T01:44:49.993Z,18.60
2022-12-17T01:47:18.233Z,18.65
2022-12-17T01:49:44.713Z,18.20
2022-12-17T01:52:15.928Z,18.68
2022-12-17T01:54:45.530Z,18.91
2022-12-17T01:57:12.152Z,18.59
2022-12-17T01:59:46.925Z,18.46
2022-12-17T02:02:14.185Z,18.87
2022-12-17T02:04:41.214Z,18.87
2022-12-17T02:07:33.672Z,18.37
2022-12-17T02:10:15.808Z,19.17
2022-12-17T02:12:50.670Z,19.11
2022-12-17T02:15:32.230Z,18.48
2022-12-17T02:18:04.797Z,18.41
2022-12-17T02:20:47.951Z,18.16
2022-12-17T02:23:54.488Z,18.25
2022-12-17T02:26:45.814Z,17.79
2022-12-17T02:29:13.153Z,16.46
2022-12-17T02:31:44.281Z,16.07
2022-12-17T02:34:10.844Z,16.77
2022-12-17T02:36:37.370Z,16.79
2022-12-17T02:39:03.940Z,17.07
2022-12-17T02:41:46.750Z,17.60
2022-12-17T02:44:18.315Z,17.39
2022-12-17T02:46:47.289Z,17.05
2022-12-17T02:49:13.773Z,17.20
2022-12-17T02:51:41.493Z,17.19
2022-12-17T02:54:08.052Z,16.83
2022-12-17T02:56:34.938Z,17.14
2022-12-17T02:59:01.457Z,17.46
2022-12-17T03:01:28.072Z,17.47
2022-12-17T03:03:54.628Z,16.83
2022-12-17T03:06:21.101Z,17.10
2022-12-17T03:08:47.618Z,16.85
2022-12-17T03:11:14.137Z,16.97
2022-12-17T03:13:40.599Z,17.04
2022-12-17T03:16:15.290Z,17.81
2022-12-17T03:18:41.792Z,18.28
2022-12-17T03:21:08.288Z,19.44
2022-12-17T03:23:35.199Z,19.40
2022-12-17T03:26:03.556Z,20.66
2022-12-17T03:28:30.084Z,20.33
2022-12-17T03:31:00.208Z,20.73
2022-12-17T03:33:29.677Z,21.14
2022-12-17T03:35:56.181Z,21.15
2022-12-17T03:38:22.643Z,22.91
2022-12-17T03:40:52.226Z,22.66
2022-12-17T03:43:18.694Z,23.60
2022-12-17T03:45:52.041Z,23.03
2022-12-17T03:48:18.524Z,22.98
2022-12-17T03:50:45.005Z,23.60
2022-12-17T03:53:11.468Z,23.31
2022-12-17T03:55:38.131Z,23.40
2022-12-17T03:58:04.593Z,23.87
2022-12-17T04:00:31.169Z,25.06
2022-12-17T04:02:57.861Z,24.84
2022-12-17T04:05:24.405Z,24.57
2022-12-17T04:07:51.135Z,24.25
2022-12-17T04:10:17.687Z,24.04
2022-12-17T04:12:58.989Z,24.24
2022-12-17T04:15:36.069Z,24.54
2022-12-17T04:18:03.288Z,24.91
2022-12-17T04:20:41.443Z,24.45
2022-12-17T04:23:07.911Z,24.50
2022-12-17T04:25:34.406Z,24.41
2022-12-17T04:28:00.845Z,23.93
2022-12-17T04:30:27.384Z,24.39
2022-12-17T04:32:53.855Z,25.58
2022-12-17T04:35:20.346Z,24.91
2022-12-17T04:37:47.183Z,25.55
2022-12-17T04:40:13.724Z,25.24
2022-12-17T04:42:40.232Z,25.19
2022-12-17T04:45:07.690Z,25.58
2022-12-17T04:47:34.192Z,25.72
2022-12-17T04:50:00.652Z,26.51
2022-12-17T04:52:27.150Z,25.57
2022-12-17T04:54:53.615Z,26.29
2022-12-17T04:57:20.075Z,26.28
2022-12-17T04:59:46.535Z,27.11
2022-12-17T05:02:13.090Z,27.07
2022-12-17T05:04:39.665Z,26.94
2022-12-17T05:07:06.143Z,26.64
2022-12-17T05:09:32.637Z,27.43
2022-12-17T05:11:59.101Z,27.44
2022-12-17T05:14:25.620Z,28.19
2022-12-17T05:16:52.115Z,27.65
2022-12-17T05:19:18.688Z,27.91
2022-12-17T05:21:45.142Z,27.34
2022-12-17T05:24:11.607Z,28.44
2022-12-17T05:26:38.165Z,29.50
2022-12-17T05:29:04.692Z,28.95
2022-12-17T05:31:31.179Z,28.31
2022-12-17T05:33:57.693Z,29.56
2022-12-17T05:36:24.284Z,28.62
2022-12-17T05:38:50.747Z,28.48
2022-12-17T05:41:17.202Z,28.75
2022-12-17T05:43:44.279Z,28.21
2022-12-17T05:46:10.811Z,28.72
2022-12-17T05:48:37.367Z,28.57
2022-12-17T05:51:03.826Z,28.82
2022-12-17T05:53:30.325Z,28.21
2022-12-17T05:55:56.795Z,28.58
2022-12-17T05:58:23.271Z,27.84
2022-12-17T06:00:49.719Z,28.13
2022-12-17T06:03:16.278Z,28.56
2022-12-17T06:05:42.828Z,28.18
2022-12-17T06:08:10.066Z,28.19
2022-12-17T06:10:37.294Z,28.46
2022-12-17T06:13:03.849Z,28.02
2022-12-17T06:15:30.300Z,28.06
2022-12-17T06:17:57.551Z,28.30
2022-12-17T06:20:24.017Z,28.26
2022-12-17T06:23:05.611Z,29.03
2022-12-17T06:25:32.208Z,28.80
2022-12-17T06:28:00.625Z,28.33
2022-12-17T06:30:27.133Z,28.91
2022-12-17T06:33:06.735Z,29.54
2022-12-17T06:35:33.275Z,28.27
2022-12-17T06:38:01.402Z,28.85
2022-12-17T06:40:28.039Z,28.92
2022-12-17T06:42:55.799Z,29.03
2022-12-17T06:45:22.303Z,28.76
2022-12-17T06:47:48.763Z,28.29
2022-12-17T06:50:15.249Z,27.71
2022-12-17T06:52:41.722Z,28.05
2022-12-17T06:55:08.732Z,28.32
2022-12-17T06:57:40.357Z,27.21
2022-12-17T07:00:08.492Z,27.14
2022-12-17T07:02:35.118Z,27.85
2022-12-17T07:05:01.690Z,27.11
2022-12-17T07:07:28.120Z,27.15
2022-12-17T07:09:54.574Z,27.68
2022-12-17T07:12:23.897Z,26.50
2022-12-17T07:14:50.376Z,27.37
2022-12-17T07:17:16.841Z,27.55
2022-12-17T07:19:43.295Z,27.35
2022-12-17T07:22:09.802Z,27.34
2022-12-17T07:24:36.599Z,27.28
2022-12-17T07:27:03.109Z,27.36
2022-12-17T07:29:29.624Z,26.74
2022-12-17T07:31:56.080Z,27.31
2022-12-17T07:34:22.631Z,27.53
2022-12-17T07:36:49.088Z,26.98
2022-12-17T07:39:15.532Z,27.29
2022-12-17T07:41:42.000Z,26.68
2022-12-17T07:44:09.136Z,25.79
2022-12-17T07:46:35.763Z,26.15
2022-12-17T07:49:02.404Z,26.49
2022-12-17T07:51:28.975Z,25.00
2022-12-17T07:53:55.506Z,25.00
2022-12-17T07:56:22.005Z,25.06
2022-12-17T07:58:48.516Z,25.43
2022-12-17T08:01:15.070Z,25.43
2022-12-17T08:03:41.887Z,25.40
2022-12-17T08:06:08.737Z,25.92
2022-12-17T08:08:35.208Z,25.27
2022-12-17T08:11:01.652Z,25.71
2022-12-17T08:13:28.144Z,25.28
2022-12-17T08:15:54.638Z,25.29
2022-12-17T08:18:26.346Z,26.09
2022-12-17T08:20:53.616Z,25.56
2022-12-17T08:23:20.054Z,25.62
2022-12-17T08:25:46.532Z,25.62
2022-12-17T08:28:41.146Z,25.23
2022-12-17T08:31:00.000Z,25.55
2022-12-17T08:33:26.493Z,25.99
2022-12-17T08:35:55.048Z,25.90
2022-12-17T08:38:21.527Z,26.05
2022-12-17T08:40:48.099Z,25.86
2022-12-17T08:43:14.574Z,26.04
2022-12-17T08:45:46.413Z,26.31
2022-12-17T08:48:12.937Z,25.54
2022-12-17T08:50:39.433Z,25.61
2022-12-17T08:53:06.671Z,25.09
2022-12-17T08:55:33.162Z,25.26
2022-12-17T08:57:59.787Z,25.02
2022-12-17T09:00:26.251Z,25.12
2022-12-17T09:03:00.953Z,24.21
2022-12-17T09:05:27.522Z,25.30
2022-12-17T09:08:06.393Z,25.15
2022-12-17T09:10:32.859Z,25.82
2022-12-17T09:13:05.137Z,25.79
2022-12-17T09:15:31.887Z,25.22
2022-12-17T09:17:58.417Z,24.79
2022-12-17T09:20:29.073Z,24.94
2022-12-17T09:22:56.155Z,25.20
2022-12-17T09:25:22.682Z,24.26
2022-12-17T09:27:49.210Z,24.48
2022-12-17T09:30:15.838Z,24.62
2022-12-17T09:32:42.344Z,24.34
2022-12-17T09:35:08.868Z,24.50
2022-12-17T09:37:35.350Z,23.72
2022-12-17T09:40:01.825Z,24.16
2022-12-17T09:42:55.605Z,24.26
2022-12-17T09:45:41.532Z,24.55
2022-12-17T09:48:32.123Z,23.95
2022-12-17T09:50:59.711Z,24.57
2022-12-17T09:53:49.439Z,24.21
2022-12-17T09:56:19.868Z,24.09
2022-12-17T09:58:47.556Z,23.78
2022-12-17T10:01:20.079Z,24.69
2022-12-17T10:03:47.419Z,24.52
2022-12-17T10:06:22.806Z,24.64
2022-12-17T10:08:58.429Z,24.20
2022-12-17T10:11:34.137Z,23.49
2022-12-17T10:14:03.237Z,23.13
2022-12-17T10:16:36.904Z,23.60
2022-12-17T10:19:04.005Z,23.26
2022-12-17T10:21:31.640Z,24.41
2022-12-17T10:24:05.951Z,24.23
2022-12-17T10:26:34.312Z,23.98
2022-12-17T10:29:11.645Z,24.70
2022-12-17T10:31:38.187Z,24.16
2022-12-17T10:34:13.584Z,24.20
2022-12-17T10:36:46.435Z,24.17
2022-12-17T10:39:22.891Z,24.55
2022-12-17T10:41:49.363Z,24.48
2022-12-17T10:44:36.587Z,25.28
2022-12-17T10:47:03.111Z,24.54
2022-12-17T10:49:29.593Z,24.39
2022-12-17T10:52:21.025Z,25.71
2022-12-17T10:55:01.475Z,26.46
2022-12-17T10:57:34.316Z,25.20
2022-12-17T11:00:00.844Z,23.76
2022-12-17T11:02:30.213Z,24.27
2022-12-17T11:04:58.452Z,24.00
2022-12-17T11:07:35.964Z,23.91
2022-12-17T11:10:09.495Z,24.24
2022-12-17T11:12:49.111Z,23.53
2022-12-17T11:15:26.195Z,23.78
2022-12-17T11:17:53.396Z,24.65
2022-12-17T11:20:34.829Z,23.85
2022-12-17T11:23:03.776Z,23.78
2022-12-17T11:25:46.449Z,23.54
2022-12-17T11:28:25.420Z,23.40
2022-12-17T11:31:18.585Z,24.02
2022-12-17T11:33:58.118Z,24.24
2022-12-17T11:36:57.640Z,24.14
2022-12-17T11:39:35.790Z,24.29
2022-12-17T11:42:18.327Z,24.62
2022-12-17T11:45:04.052Z,25.46
2022-12-17T11:47:45.395Z,25.06
2022-12-17T11:50:31.284Z,24.15
2022-12-17T11:53:10.828Z,24.42
2022-12-17T11:56:12.413Z,23.90
2022-12-17T11:58:46.832Z,24.12
2022-12-17T12:01:19.299Z,23.91
2022-12-17T12:03:54.739Z,23.07
2022-12-17T12:06:37.341Z,23.62
2022-12-17T12:09:03.732Z,23.66
2022-12-17T12:11:43.058Z,23.23
2022-12-17T12:14:22.439Z,23.32
2022-12-17T12:17:39.612Z,24.24
2022-12-17T12:21:05.138Z,24.21
2022-12-17T12:24:16.027Z,23.57
2022-12-17T12:27:10.857Z,23.14
2022-12-17T12:30:05.491Z,22.82
2022-12-17T12:32:49.218Z,23.33
2022-12-17T12:35:22.390Z,22.78
2022-12-17T12:37:49.057Z,23.31
2022-12-17T12:40:44.364Z,22.94
2022-12-17T12:43:28.076Z,23.06
2022-12-17T12:46:23.928Z,23.59
2022-12-17T12:49:18.330Z,23.86
2022-12-17T12:51:45.677Z,24.17
2022-12-17T12:54:22.569Z,23.41
2022-12-17T12:56:49.077Z,22.97
2022-12-17T12:59:34.703Z,22.94
2022-12-17T13:02:01.343Z,23.98
2022-12-17T13:04:35.740Z,23.53
2022-12-17T13:07:02.238Z,22.98
2022-12-17T13:09:34.173Z,23.55
2022-12-17T13:12:04.132Z,23.20
2022-12-17T13:14:49.218Z,23.77
2022-12-17T13:17:15.612Z,22.53
2022-12-17T13:19:57.314Z,23.18
2022-12-17T13:22:24.611Z,22.62
2022-12-17T13:25:08.564Z,23.84
2022-12-17T13:27:34.992Z,23.21
2022-12-17T13:30:19.525Z,23.13
2022-12-17T13:33:01.065Z,23.21
2022-12-17T13:36:04.701Z,22.82
2022-12-17T13:38:54.784Z,22.77
2022-12-17T13:41:29.912Z,22.91
2022-12-17T13:44:04.281Z,23.55
2022-12-17T13:46:47.635Z,22.80
2022-12-17T13:49:40.785Z,22.74
2022-12-17T13:52:17.510Z,22.15
2022-12-17T13:54:44.320Z,22.75
2022-12-17T13:57:18.856Z,22.47
2022-12-17T13:59:52.782Z,23.21
2022-12-17T14:02:34.722Z,22.33
2022-12-17T14:05:07.766Z,22.89
2022-12-17T14:07:38.781Z,22.78
2022-12-17T14:10:14.625Z,22.83
2022-12-17T14:12:41.500Z,23.00
2022-12-17T14:15:23.518Z,22.11
2022-12-17T14:17:52.483Z,23.15
2022-12-17T14:20:24.841Z,22.02
2022-12-17T14:23:03.133Z,22.20
2022-12-17T14:25:42.661Z,21.55
2022-12-17T14:28:31.664Z,21.51
2022-12-17T14:34:05.768Z,21.80
2022-12-17T14:36:36.148Z,22.14
2022-12-17T14:39:15.699Z,22.08
2022-12-17T14:41:42.469Z,21.83
2022-12-17T14:44:22.093Z,21.98
2022-12-17T14:47:09.113Z,22.19
2022-12-17T14:49:50.829Z,22.42
2022-12-17T14:52:35.213Z,22.82
2022-12-17T14:55:21.242Z,22.42
2022-12-17T14:57:48.429Z,23.23
2022-12-17T15:00:15.147Z,23.20
2022-12-17T15:02:44.492Z,23.67
2022-12-17T15:05:16.003Z,23.68
2022-12-17T15:07:42.797Z,23.79
2022-12-17T15:10:18.662Z,23.15
2022-12-17T15:12:45.160Z,22.72
2022-12-17T15:15:16.178Z,23.83
2022-12-17T15:17:43.661Z,24.45
2022-12-17T15:20:17.659Z,23.68
2022-12-17T15:22:44.489Z,24.19
2022-12-17T15:25:17.669Z,23.68
2022-12-17T15:27:45.412Z,23.83
2022-12-17T15:30:19.020Z,23.98
2022-12-17T15:32:46.159Z,23.46
2022-12-17T15:35:13.942Z,24.28
2022-12-17T15:37:40.680Z,24.26
2022-12-17T15:40:08.272Z,23.26
2022-12-17T15:42:34.776Z,23.77
2022-12-17T15:45:01.242Z,23.88
2022-12-17T15:47:27.720Z,24.71
2022-12-17T15:49:54.153Z,24.97
2022-12-17T15:52:21.048Z,25.81
2022-12-17T15:54:47.489Z,25.60
2022-12-17T15:57:18.365Z,25.43
2022-12-17T15:59:45.304Z,24.84
2022-12-17T16:02:12.209Z,23.95
2022-12-17T16:04:38.949Z,25.04
2022-12-17T16:07:05.449Z,24.08
2022-12-17T16:09:31.953Z,24.05
2022-12-17T16:11:58.558Z,24.76
2022-12-17T16:14:25.056Z,25.02
2022-12-17T16:16:51.994Z,25.17
2022-12-17T16:19:18.652Z,26.00
2022-12-17T16:21:47.060Z,25.47
2022-12-17T16:24:13.742Z,25.88
2022-12-17T16:26:40.251Z,25.58
2022-12-17T16:29:06.750Z,25.42
2022-12-17T16:31:33.383Z,25.92
2022-12-17T16:33:59.929Z,25.96
2022-12-17T16:36:26.558Z,26.07
2022-12-17T16:38:54.501Z,25.17
2022-12-17T16:41:22.361Z,25.44
2022-12-17T16:43:49.096Z,25.94
2022-12-17T16:46:36.309Z,25.89
2022-12-17T16:49:10.011Z,26.43
2022-12-17T16:51:36.631Z,26.24
2022-12-17T16:54:08.163Z,25.85
2022-12-17T16:56:39.647Z,26.22
2022-12-17T16:59:07.592Z,26.17
2022-12-17T17:01:35.300Z,27.00
2022-12-17T17:04:04.067Z,27.55
2022-12-17T17:06:33.857Z,27.32
2022-12-17T17:09:06.054Z,26.87
2022-12-17T17:11:32.835Z,26.41
2022-12-17T17:13:59.366Z,26.89
2022-12-17T17:16:26.311Z,26.81
2022-12-17T17:18:54.068Z,26.78
2022-12-17T17:21:20.569Z,26.72
2022-12-17T17:23:49.801Z,26.59
2022-12-17T17:26:16.884Z,26.99
2022-12-17T17:28:46.250Z,27.69
2022-12-17T17:31:14.792Z,27.41
2022-12-17T17:33:44.750Z,27.75
2022-12-17T17:36:19.994Z,27.88
2022-12-17T17:38:48.208Z,27.71
2022-12-17T17:41:18.529Z,27.76
2022-12-17T17:43:45.099Z,28.01
2022-12-17T17:46:15.479Z,27.74
2022-12-17T17:48:44.272Z,27.71
2022-12-17T17:51:38.948Z,27.51
2022-12-17T17:54:14.248Z,26.97
2022-12-17T17:56:42.520Z,28.03
2022-12-17T17:59:14.913Z,27.30
2022-12-17T18:01:44.575Z,27.25
2022-12-17T18:04:15.092Z,27.66
2022-12-17T18:07:02.694Z,27.29
2022-12-17T18:09:29.889Z,27.76
2022-12-17T18:11:56.555Z,27.17
2022-12-17T18:14:23.059Z,27.22
2022-12-17T18:16:49.557Z,27.69
2022-12-17T18:19:20.040Z,27.17
2022-12-17T18:21:47.070Z,27.30
2022-12-17T18:24:19.887Z,27.73
2022-12-17T18:26:47.288Z,27.20
2022-12-17T18:29:21.239Z,27.38
2022-12-17T18:31:51.733Z,28.34
2022-12-17T18:34:22.392Z,28.07
2022-12-17T18:36:50.377Z,28.36
2022-12-17T18:39:22.660Z,29.00
2022-12-17T18:41:51.652Z,29.02
2022-12-17T18:44:19.912Z,29.15
2022-12-17T18:46:47.049Z,29.20
2022-12-17T18:49:16.196Z,29.03
2022-12-17T18:51:45.131Z,29.31
2022-12-17T18:54:15.331Z,28.99
2022-12-17T18:57:01.969Z,29.25
2022-12-17T18:59:30.206Z,29.57
2022-12-17T19:01:57.901Z,29.60
2022-12-17T19:04:25.585Z,28.95
2022-12-17T19:06:52.217Z,29.47
2022-12-17T19:09:27.530Z,29.45
2022-12-17T19:11:56.533Z,29.29
2022-12-17T19:14:23.903Z,29.57
2022-12-17T19:16:53.168Z,29.50
2022-12-17T19:19:20.291Z,30.32
2022-12-17T19:21:47.329Z,29.62
2022-12-17T19:24:16.860Z,29.62
2022-12-17T19:26:43.453Z,29.82
2022-12-17T19:29:12.722Z,29.64
2022-12-17T19:31:39.896Z,29.19
2022-12-17T19:34:11.136Z,30.25
2022-12-17T19:36:38.784Z,29.98
2022-12-17T19:39:10.514Z,29.91
2022-12-17T19:41:37.037Z,28.85
2022-12-17T19:44:11.250Z,29.59
2022-12-17T19:46:38.382Z,28.96
2022-12-17T19:49:04.891Z,29.00
2022-12-17T19:51:32.441Z,28.56
2022-12-17T19:54:06.462Z,29.09
2022-12-17T19:56:35.618Z,29.24
2022-12-17T19:59:06.505Z,28.58
2022-12-17T20:01:35.911Z,28.78
2022-12-17T20:04:02.474Z,28.65
2022-12-17T20:06:31.732Z,28.88
2022-12-17T20:08:59.616Z,29.54
2022-12-17T20:11:27.076Z,29.52
2022-12-17T20:14:16.984Z,29.07
2022-12-17T20:16:46.672Z,28.12
2022-12-17T20:19:21.003Z,28.72
2022-12-17T20:21:48.560Z,28.93
2022-12-17T20:24:16.241Z,28.37
2022-12-17T20:26:44.041Z,28.94
2022-12-17T20:29:10.869Z,28.76
2022-12-17T20:31:38.733Z,28.72
2022-12-17T20:34:08.082Z,29.28
2022-12-17T20:36:35.313Z,29.34
2022-12-17T20:39:02.003Z,29.04
2022-12-17T20:41:31.418Z,28.64
2022-12-17T20:44:01.680Z,28.20
2022-12-17T20:46:28.148Z,28.80
2022-12-17T20:48:54.666Z,28.78
2022-12-17T20:51:24.971Z,29.20
2022-12-17T20:53:54.020Z,27.81
2022-12-17T20:56:29.844Z,27.84
2022-12-17T20:58:59.387Z,28.00
2022-12-17T21:01:28.339Z,28.24
2022-12-17T21:03:57.317Z,28.85
2022-12-17T21:06:30.074Z,28.92
2022-12-17T21:08:56.532Z,29.28
2022-12-17T21:11:31.334Z,28.96
2022-12-17T21:13:59.309Z,29.72
2022-12-17T21:16:29.699Z,28.97
2022-12-17T21:18:58.320Z,28.84
2022-12-17T21:21:28.202Z,28.98
2022-12-17T21:23:55.572Z,30.13
2022-12-17T21:26:24.996Z,28.78
2022-12-17T21:28:53.985Z,29.73
2022-12-17T21:31:38.117Z,30.21
2022-12-17T21:34:06.877Z,29.40
2022-12-17T21:36:34.745Z,29.30
2022-12-17T21:39:03.927Z,29.26
2022-12-17T21:41:39.373Z,29.31
2022-12-17T21:44:13.280Z,29.52
2022-12-17T21:46:41.082Z,29.47
2022-12-17T21:49:07.638Z,29.09
2022-12-17T21:51:34.992Z,29.34
2022-12-17T21:54:08.698Z,28.87
2022-12-17T21:56:35.627Z,29.10
2022-12-17T21:59:02.166Z,29.03
2022-12-17T22:01:32.097Z,28.00
2022-12-17T22:04:01.578Z,27.73
2022-12-17T22:06:34.217Z,28.28
2022-12-17T22:09:15.192Z,28.12
2022-12-17T22:11:53.506Z,29.05
2022-12-17T22:14:21.316Z,28.36
2022-12-17T22:16:48.756Z,27.23
2022-12-17T22:19:23.294Z,28.41
2022-12-17T22:21:51.670Z,28.64
2022-12-17T22:24:23.012Z,27.99
2022-12-17T22:26:49.557Z,28.34
2022-12-17T22:29:16.628Z,28.44
2022-12-17T22:31:43.113Z,28.65
2022-12-17T22:34:58.865Z,28.16
2022-12-17T22:41:06.792Z,28.51
2022-12-17T22:42:16.228Z,27.80
2022-12-17T22:44:38.493Z,28.19
2022-12-17T22:45:18.983Z,28.53
2022-12-17T22:47:45.940Z,29.35
2022-12-17T22:50:12.466Z,28.28
2022-12-17T22:52:39.513Z,28.33
2022-12-17T22:55:06.769Z,28.13
2022-12-17T22:57:36.909Z,28.40
2022-12-17T23:00:17.882Z,28.59
2022-12-17T23:02:44.680Z,28.94
2022-12-17T23:05:11.239Z,28.54
2022-12-17T23:07:37.863Z,27.87
2022-12-17T23:10:05.855Z,28.57
2022-12-17T23:12:32.340Z,27.68
2022-12-17T23:14:58.769Z,28.77
2022-12-17T23:17:25.233Z,28.05
2022-12-17T23:19:51.712Z,28.02
2022-12-17T23:22:22.175Z,28.65
2022-12-17T23:24:49.342Z,28.78
2022-12-17T23:27:15.884Z,28.41
2022-12-17T23:29:42.354Z,29.08
2022-12-17T23:32:08.886Z,29.09
2022-12-17T23:34:35.359Z,28.40
2022-12-17T23:37:01.868Z,28.70
2022-12-17T23:39:28.360Z,28.44
2022-12-17T23:41:54.893Z,28.11
2022-12-17T23:44:21.464Z,28.18
2022-12-17T23:46:48.067Z,28.49
2022-12-17T23:49:15.914Z,28.29
2022-12-17T23:51:42.378Z,28.32
2022-12-17T23:54:08.942Z,28.01
2022-12-17T23:56:35.535Z,28.34
2022-12-17T23:59:03.706Z,27.64
